sensor_id;sensor_type;location;lat;lon;timestamp;P1;durP1;ratioP1;P2;durP2;ratioP2
3297;SDS011;1661;53.572;10.174;2023-11-22T00:00:16;3.63;;;3.33;;
3297;SDS011;1661;53.572;10.174;2023-11-22T00:02:46;5.17;;;3.03;;
3297;SDS011;1661;53.572;10.174;2023-11-22T00:05:13;4.23;;;3.73;;
3297;SDS011;1661;53.572;10.174;2023-11-22T00:07:40;3.67;;;3.37;;
3297;SDS011;1661;53.572;10.174;2023-11-22T00:10:08;4.27;;;3.80;;
3297;SDS011;1661;53.572;10.174;2023-11-22T00:12:35;4.33;;;3.80;;
3297;SDS011;1661;53.572;10.174;2023-11-22T00:15:03;5.17;;;3.47;;
3297;SDS011;1661;53.572;10.174;2023-11-22T00:17:32;5.10;;;3.77;;
3297;SDS011;1661;53.572;10.174;2023-11-22T00:19:58;3.80;;;3.40;;
3297;SDS011;1661;53.572;10.174;2023-11-22T00:22:30;4.90;;;3.53;;
3297;SDS011;1661;53.572;10.174;2023-11-22T00:24:57;5.03;;;4.20;;
3297;SDS011;1661;53.572;10.174;2023-11-22T00:27:25;4.60;;;3.10;;
3297;SDS011;1661;53.572;10.174;2023-11-22T00:29:52;4.13;;;3.80;;
3297;SDS011;1661;53.572;10.174;2023-11-22T00:32:19;3.27;;;2.83;;
3297;SDS011;1661;53.572;10.174;2023-11-22T00:34:46;12.30;;;4.53;;
3297;SDS011;1661;53.572;10.174;2023-11-22T00:37:13;4.53;;;4.10;;
3297;SDS011;1661;53.572;10.174;2023-11-22T00:39:40;4.40;;;4.00;;
3297;SDS011;1661;53.572;10.174;2023-11-22T00:42:07;6.43;;;5.80;;
3297;SDS011;1661;53.572;10.174;2023-11-22T00:44:35;9.03;;;6.33;;
3297;SDS011;1661;53.572;10.174;2023-11-22T00:47:02;8.13;;;6.20;;
3297;SDS011;1661;53.572;10.174;2023-11-22T00:49:30;6.10;;;4.13;;
3297;SDS011;1661;53.572;10.174;2023-11-22T00:51:57;6.70;;;4.20;;
3297;SDS011;1661;53.572;10.174;2023-11-22T00:54:24;7.90;;;4.97;;
3297;SDS011;1661;53.572;10.174;2023-11-22T00:56:51;3.00;;;2.77;;
3297;SDS011;1661;53.572;10.174;2023-11-22T00:59:18;3.03;;;2.73;;
3297;SDS011;1661;53.572;10.174;2023-11-22T01:01:46;13.43;;;4.07;;
3297;SDS011;1661;53.572;10.174;2023-11-22T01:04:13;4.73;;;3.87;;
3297;SDS011;1661;53.572;10.174;2023-11-22T01:06:40;4.33;;;3.97;;
3297;SDS011;1661;53.572;10.174;2023-11-22T01:09:07;5.33;;;3.33;;
3297;SDS011;1661;53.572;10.174;2023-11-22T01:11:37;5.63;;;4.07;;
3297;SDS011;1661;53.572;10.174;2023-11-22T01:14:04;5.03;;;4.07;;
3297;SDS011;1661;53.572;10.174;2023-11-22T01:16:31;3.87;;;3.37;;
3297;SDS011;1661;53.572;10.174;2023-11-22T01:18:59;4.50;;;3.97;;
3297;SDS011;1661;53.572;10.174;2023-11-22T01:21:26;6.13;;;3.60;;
3297;SDS011;1661;53.572;10.174;2023-11-22T01:23:53;5.13;;;3.70;;
3297;SDS011;1661;53.572;10.174;2023-11-22T01:26:20;4.63;;;4.23;;
3297;SDS011;1661;53.572;10.174;2023-11-22T01:28:49;3.53;;;3.23;;
3297;SDS011;1661;53.572;10.174;2023-11-22T01:31:17;4.70;;;3.60;;
3297;SDS011;1661;53.572;10.174;2023-11-22T01:33:46;3.73;;;3.40;;
3297;SDS011;1661;53.572;10.174;2023-11-22T01:36:14;4.67;;;4.27;;
3297;SDS011;1661;53.572;10.174;2023-11-22T01:38:41;3.23;;;2.93;;
3297;SDS011;1661;53.572;10.174;2023-11-22T01:41:09;8.33;;;4.10;;
3297;SDS011;1661;53.572;10.174;2023-11-22T01:43:38;4.70;;;3.70;;
3297;SDS011;1661;53.572;10.174;2023-11-22T01:46:06;4.40;;;4.00;;
3297;SDS011;1661;53.572;10.174;2023-11-22T01:48:34;4.07;;;3.73;;
3297;SDS011;1661;53.572;10.174;2023-11-22T01:51:02;4.97;;;3.33;;
3297;SDS011;1661;53.572;10.174;2023-11-22T01:53:30;9.23;;;4.13;;
3297;SDS011;1661;53.572;10.174;2023-11-22T01:55:58;4.93;;;4.17;;
3297;SDS011;1661;53.572;10.174;2023-11-22T01:58:25;4.03;;;3.67;;
3297;SDS011;1661;53.572;10.174;2023-11-22T02:00:52;3.97;;;3.60;;
3297;SDS011;1661;53.572;10.174;2023-11-22T02:03:18;7.37;;;4.70;;
3297;SDS011;1661;53.572;10.174;2023-11-22T02:05:45;4.00;;;3.40;;
3297;SDS011;1661;53.572;10.174;2023-11-22T02:08:12;4.40;;;3.80;;
3297;SDS011;1661;53.572;10.174;2023-11-22T02:10:41;3.80;;;3.33;;
3297;SDS011;1661;53.572;10.174;2023-11-22T02:13:09;8.82;;;3.75;;
3297;SDS011;1661;53.572;10.174;2023-11-22T02:15:37;7.88;;;5.57;;
3297;SDS011;1661;53.572;10.174;2023-11-22T02:18:04;4.37;;;3.87;;
3297;SDS011;1661;53.572;10.174;2023-11-22T02:20:31;5.23;;;3.43;;
3297;SDS011;1661;53.572;10.174;2023-11-22T02:23:03;4.53;;;3.60;;
3297;SDS011;1661;53.572;10.174;2023-11-22T02:25:34;6.77;;;4.87;;
3297;SDS011;1661;53.572;10.174;2023-11-22T02:28:01;4.77;;;4.30;;
3297;SDS011;1661;53.572;10.174;2023-11-22T02:30:28;4.97;;;4.30;;
3297;SDS011;1661;53.572;10.174;2023-11-22T02:32:55;5.80;;;4.50;;
3297;SDS011;1661;53.572;10.174;2023-11-22T02:35:24;3.90;;;3.60;;
3297;SDS011;1661;53.572;10.174;2023-11-22T02:37:51;4.10;;;3.70;;
3297;SDS011;1661;53.572;10.174;2023-11-22T02:40:20;3.45;;;3.15;;
3297;SDS011;1661;53.572;10.174;2023-11-22T02:42:48;6.68;;;6.03;;
3297;SDS011;1661;53.572;10.174;2023-11-22T02:45:15;5.13;;;4.60;;
3297;SDS011;1661;53.572;10.174;2023-11-22T02:47:43;5.35;;;4.68;;
3297;SDS011;1661;53.572;10.174;2023-11-22T02:50:11;7.70;;;5.47;;
3297;SDS011;1661;53.572;10.174;2023-11-22T02:52:39;5.40;;;4.43;;
3297;SDS011;1661;53.572;10.174;2023-11-22T02:55:06;7.30;;;5.43;;
3297;SDS011;1661;53.572;10.174;2023-11-22T02:57:35;6.23;;;5.00;;
3297;SDS011;1661;53.572;10.174;2023-11-22T03:00:02;5.38;;;4.38;;
3297;SDS011;1661;53.572;10.174;2023-11-22T03:02:31;4.63;;;4.05;;
3297;SDS011;1661;53.572;10.174;2023-11-22T03:04:58;6.50;;;5.20;;
3297;SDS011;1661;53.572;10.174;2023-11-22T03:07:24;6.13;;;4.88;;
3297;SDS011;1661;53.572;10.174;2023-11-22T03:09:51;5.93;;;4.25;;
3297;SDS011;1661;53.572;10.174;2023-11-22T03:12:18;9.00;;;5.47;;
3297;SDS011;1661;53.572;10.174;2023-11-22T03:14:46;5.13;;;4.63;;
3297;SDS011;1661;53.572;10.174;2023-11-22T03:17:14;6.97;;;5.15;;
3297;SDS011;1661;53.572;10.174;2023-11-22T03:19:41;8.83;;;5.97;;
3297;SDS011;1661;53.572;10.174;2023-11-22T03:22:09;12.40;;;7.13;;
3297;SDS011;1661;53.572;10.174;2023-11-22T03:24:36;8.82;;;5.25;;
3297;SDS011;1661;53.572;10.174;2023-11-22T03:27:03;5.63;;;4.90;;
3297;SDS011;1661;53.572;10.174;2023-11-22T03:29:31;4.80;;;4.30;;
3297;SDS011;1661;53.572;10.174;2023-11-22T03:32:00;5.45;;;5.00;;
3297;SDS011;1661;53.572;10.174;2023-11-22T03:34:26;5.93;;;4.72;;
3297;SDS011;1661;53.572;10.174;2023-11-22T03:36:53;6.10;;;5.30;;
3297;SDS011;1661;53.572;10.174;2023-11-22T03:39:20;10.52;;;5.80;;
3297;SDS011;1661;53.572;10.174;2023-11-22T03:41:47;6.45;;;5.57;;
3297;SDS011;1661;53.572;10.174;2023-11-22T03:44:15;7.28;;;6.25;;
3297;SDS011;1661;53.572;10.174;2023-11-22T03:46:42;6.97;;;4.90;;
3297;SDS011;1661;53.572;10.174;2023-11-22T03:49:10;4.20;;;3.13;;
3297;SDS011;1661;53.572;10.174;2023-11-22T03:51:38;7.00;;;5.55;;
3297;SDS011;1661;53.572;10.174;2023-11-22T03:54:05;7.53;;;5.88;;
3297;SDS011;1661;53.572;10.174;2023-11-22T03:56:32;7.40;;;5.30;;
3297;SDS011;1661;53.572;10.174;2023-11-22T03:58:59;6.83;;;5.27;;
3297;SDS011;1661;53.572;10.174;2023-11-22T04:01:26;4.78;;;4.30;;
3297;SDS011;1661;53.572;10.174;2023-11-22T04:03:53;6.55;;;5.50;;
3297;SDS011;1661;53.572;10.174;2023-11-22T04:06:21;7.60;;;6.10;;
3297;SDS011;1661;53.572;10.174;2023-11-22T04:08:48;5.45;;;4.95;;
3297;SDS011;1661;53.572;10.174;2023-11-22T04:11:15;5.03;;;4.53;;
3297;SDS011;1661;53.572;10.174;2023-11-22T04:13:43;7.97;;;5.45;;
3297;SDS011;1661;53.572;10.174;2023-11-22T04:16:10;6.85;;;6.13;;
3297;SDS011;1661;53.572;10.174;2023-11-22T04:18:37;5.50;;;4.65;;
3297;SDS011;1661;53.572;10.174;2023-11-22T04:21:05;7.70;;;4.90;;
3297;SDS011;1661;53.572;10.174;2023-11-22T04:23:33;9.65;;;6.45;;
3297;SDS011;1661;53.572;10.174;2023-11-22T04:26:01;6.50;;;4.97;;
3297;SDS011;1661;53.572;10.174;2023-11-22T04:28:28;7.78;;;6.30;;
3297;SDS011;1661;53.572;10.174;2023-11-22T04:30:55;8.50;;;5.15;;
3297;SDS011;1661;53.572;10.174;2023-11-22T04:33:23;7.68;;;5.65;;
3297;SDS011;1661;53.572;10.174;2023-11-22T04:35:50;8.77;;;6.43;;
3297;SDS011;1661;53.572;10.174;2023-11-22T04:38:17;8.18;;;6.05;;
3297;SDS011;1661;53.572;10.174;2023-11-22T04:40:45;6.38;;;5.22;;
3297;SDS011;1661;53.572;10.174;2023-11-22T04:43:12;9.45;;;7.93;;
3297;SDS011;1661;53.572;10.174;2023-11-22T04:45:39;4.63;;;4.22;;
3297;SDS011;1661;53.572;10.174;2023-11-22T04:48:06;5.38;;;4.88;;
3297;SDS011;1661;53.572;10.174;2023-11-22T04:50:33;7.22;;;5.10;;
3297;SDS011;1661;53.572;10.174;2023-11-22T04:53:00;8.55;;;5.57;;
3297;SDS011;1661;53.572;10.174;2023-11-22T04:55:27;7.63;;;5.88;;
3297;SDS011;1661;53.572;10.174;2023-11-22T04:57:55;6.57;;;5.07;;
3297;SDS011;1661;53.572;10.174;2023-11-22T05:00:22;6.95;;;5.85;;
3297;SDS011;1661;53.572;10.174;2023-11-22T05:02:49;6.18;;;5.35;;
3297;SDS011;1661;53.572;10.174;2023-11-22T05:05:16;8.43;;;6.70;;
3297;SDS011;1661;53.572;10.174;2023-11-22T05:07:42;8.48;;;5.60;;
3297;SDS011;1661;53.572;10.174;2023-11-22T05:10:10;6.25;;;5.20;;
3297;SDS011;1661;53.572;10.174;2023-11-22T05:12:37;6.00;;;5.00;;
3297;SDS011;1661;53.572;10.174;2023-11-22T05:15:06;4.90;;;4.40;;
3297;SDS011;1661;53.572;10.174;2023-11-22T05:17:33;7.15;;;5.18;;
3297;SDS011;1661;53.572;10.174;2023-11-22T05:20:00;11.40;;;7.82;;
3297;SDS011;1661;53.572;10.174;2023-11-22T05:22:27;6.30;;;5.70;;
3297;SDS011;1661;53.572;10.174;2023-11-22T05:24:53;7.55;;;6.50;;
3297;SDS011;1661;53.572;10.174;2023-11-22T05:27:21;8.43;;;6.13;;
3297;SDS011;1661;53.572;10.174;2023-11-22T05:29:48;5.70;;;5.20;;
3297;SDS011;1661;53.572;10.174;2023-11-22T05:32:16;5.57;;;4.45;;
3297;SDS011;1661;53.572;10.174;2023-11-22T05:34:43;7.57;;;5.72;;
3297;SDS011;1661;53.572;10.174;2023-11-22T05:37:09;8.32;;;6.30;;
3297;SDS011;1661;53.572;10.174;2023-11-22T05:39:36;6.43;;;5.80;;
3297;SDS011;1661;53.572;10.174;2023-11-22T05:42:03;7.63;;;5.70;;
3297;SDS011;1661;53.572;10.174;2023-11-22T05:44:32;6.40;;;5.80;;
3297;SDS011;1661;53.572;10.174;2023-11-22T05:46:58;9.02;;;8.13;;
3297;SDS011;1661;53.572;10.174;2023-11-22T05:49:27;6.93;;;5.38;;
3297;SDS011;1661;53.572;10.174;2023-11-22T05:51:53;7.65;;;5.53;;
3297;SDS011;1661;53.572;10.174;2023-11-22T05:54:20;6.25;;;4.72;;
3297;SDS011;1661;53.572;10.174;2023-11-22T05:56:47;9.68;;;8.10;;
3297;SDS011;1661;53.572;10.174;2023-11-22T05:59:14;12.88;;;9.30;;
3297;SDS011;1661;53.572;10.174;2023-11-22T06:01:40;14.90;;;9.18;;
3297;SDS011;1661;53.572;10.174;2023-11-22T06:04:07;10.40;;;7.22;;
3297;SDS011;1661;53.572;10.174;2023-11-22T06:06:36;8.95;;;7.22;;
3297;SDS011;1661;53.572;10.174;2023-11-22T06:09:03;8.93;;;7.57;;
3297;SDS011;1661;53.572;10.174;2023-11-22T06:11:30;6.82;;;6.10;;
3297;SDS011;1661;53.572;10.174;2023-11-22T06:13:57;6.43;;;5.50;;
3297;SDS011;1661;53.572;10.174;2023-11-22T06:16:24;7.88;;;5.30;;
3297;SDS011;1661;53.572;10.174;2023-11-22T06:18:50;8.95;;;6.72;;
3297;SDS011;1661;53.572;10.174;2023-11-22T06:21:17;7.30;;;6.60;;
3297;SDS011;1661;53.572;10.174;2023-11-22T06:23:46;8.68;;;7.57;;
3297;SDS011;1661;53.572;10.174;2023-11-22T06:26:15;8.48;;;6.82;;
3297;SDS011;1661;53.572;10.174;2023-11-22T06:28:41;8.80;;;5.97;;
3297;SDS011;1661;53.572;10.174;2023-11-22T06:31:10;9.90;;;6.30;;
3297;SDS011;1661;53.572;10.174;2023-11-22T06:33:37;15.35;;;9.00;;
3297;SDS011;1661;53.572;10.174;2023-11-22T06:36:04;7.53;;;6.72;;
3297;SDS011;1661;53.572;10.174;2023-11-22T06:38:32;11.45;;;6.57;;
3297;SDS011;1661;53.572;10.174;2023-11-22T06:40:59;4.93;;;4.53;;
3297;SDS011;1661;53.572;10.174;2023-11-22T06:43:26;6.30;;;5.20;;
3297;SDS011;1661;53.572;10.174;2023-11-22T06:45:52;11.73;;;7.03;;
3297;SDS011;1661;53.572;10.174;2023-11-22T06:48:19;7.70;;;5.72;;
3297;SDS011;1661;53.572;10.174;2023-11-22T06:50:46;7.85;;;6.15;;
3297;SDS011;1661;53.572;10.174;2023-11-22T06:53:13;7.70;;;6.97;;
3297;SDS011;1661;53.572;10.174;2023-11-22T06:55:40;10.88;;;8.10;;
3297;SDS011;1661;53.572;10.174;2023-11-22T06:58:08;16.27;;;9.68;;
3297;SDS011;1661;53.572;10.174;2023-11-22T07:00:36;9.55;;;6.55;;
3297;SDS011;1661;53.572;10.174;2023-11-22T07:03:05;5.97;;;5.33;;
3297;SDS011;1661;53.572;10.174;2023-11-22T07:05:31;6.57;;;5.35;;
3297;SDS011;1661;53.572;10.174;2023-11-22T07:07:58;9.68;;;6.97;;
3297;SDS011;1661;53.572;10.174;2023-11-22T07:10:25;9.77;;;8.00;;
3297;SDS011;1661;53.572;10.174;2023-11-22T07:12:52;9.15;;;7.55;;
3297;SDS011;1661;53.572;10.174;2023-11-22T07:15:20;9.23;;;6.40;;
3297;SDS011;1661;53.572;10.174;2023-11-22T07:17:46;13.13;;;8.43;;
3297;SDS011;1661;53.572;10.174;2023-11-22T07:20:14;7.55;;;6.75;;
3297;SDS011;1661;53.572;10.174;2023-11-22T07:22:42;11.63;;;6.53;;
3297;SDS011;1661;53.572;10.174;2023-11-22T07:25:09;9.50;;;7.32;;
3297;SDS011;1661;53.572;10.174;2023-11-22T07:27:43;10.82;;;8.50;;
3297;SDS011;1661;53.572;10.174;2023-11-22T07:30:11;10.77;;;7.05;;
3297;SDS011;1661;53.572;10.174;2023-11-22T07:32:40;15.00;;;9.63;;
3297;SDS011;1661;53.572;10.174;2023-11-22T07:35:07;16.30;;;10.32;;
3297;SDS011;1661;53.572;10.174;2023-11-22T07:37:37;8.60;;;6.00;;
3297;SDS011;1661;53.572;10.174;2023-11-22T07:40:06;12.35;;;7.05;;
3297;SDS011;1661;53.572;10.174;2023-11-22T07:42:34;13.10;;;7.45;;
3297;SDS011;1661;53.572;10.174;2023-11-22T07:45:01;11.40;;;7.65;;
3297;SDS011;1661;53.572;10.174;2023-11-22T07:47:28;13.65;;;6.90;;
3297;SDS011;1661;53.572;10.174;2023-11-22T07:49:57;7.95;;;7.20;;
3297;SDS011;1661;53.572;10.174;2023-11-22T07:52:26;12.93;;;8.60;;
3297;SDS011;1661;53.572;10.174;2023-11-22T07:54:55;15.17;;;10.03;;
3297;SDS011;1661;53.572;10.174;2023-11-22T07:57:22;14.07;;;9.50;;
3297;SDS011;1661;53.572;10.174;2023-11-22T07:59:48;11.97;;;8.47;;
3297;SDS011;1661;53.572;10.174;2023-11-22T08:02:15;8.47;;;7.67;;
3297;SDS011;1661;53.572;10.174;2023-11-22T08:04:43;10.13;;;7.65;;
3297;SDS011;1661;53.572;10.174;2023-11-22T08:07:13;8.30;;;7.20;;
3297;SDS011;1661;53.572;10.174;2023-11-22T08:09:40;8.18;;;7.28;;
3297;SDS011;1661;53.572;10.174;2023-11-22T08:12:07;12.95;;;8.15;;
3297;SDS011;1661;53.572;10.174;2023-11-22T08:14:37;17.53;;;6.87;;
3297;SDS011;1661;53.572;10.174;2023-11-22T08:17:05;5.77;;;5.23;;
3297;SDS011;1661;53.572;10.174;2023-11-22T08:19:32;7.20;;;6.50;;
3297;SDS011;1661;53.572;10.174;2023-11-22T08:21:59;13.33;;;7.13;;
3297;SDS011;1661;53.572;10.174;2023-11-22T08:24:27;9.17;;;6.00;;
3297;SDS011;1661;53.572;10.174;2023-11-22T08:26:53;13.20;;;8.32;;
3297;SDS011;1661;53.572;10.174;2023-11-22T08:29:20;11.10;;;7.20;;
3297;SDS011;1661;53.572;10.174;2023-11-22T08:31:49;9.40;;;7.37;;
3297;SDS011;1661;53.572;10.174;2023-11-22T08:34:16;10.93;;;8.77;;
3297;SDS011;1661;53.572;10.174;2023-11-22T08:36:43;9.97;;;7.97;;
3297;SDS011;1661;53.572;10.174;2023-11-22T08:39:10;11.67;;;8.60;;
3297;SDS011;1661;53.572;10.174;2023-11-22T08:41:38;12.23;;;9.10;;
3297;SDS011;1661;53.572;10.174;2023-11-22T08:44:05;13.13;;;7.93;;
3297;SDS011;1661;53.572;10.174;2023-11-22T08:46:32;14.70;;;6.30;;
3297;SDS011;1661;53.572;10.174;2023-11-22T08:48:58;10.50;;;7.70;;
3297;SDS011;1661;53.572;10.174;2023-11-22T08:51:27;14.93;;;8.20;;
3297;SDS011;1661;53.572;10.174;2023-11-22T08:53:54;16.00;;;8.33;;
3297;SDS011;1661;53.572;10.174;2023-11-22T08:56:20;11.80;;;9.70;;
3297;SDS011;1661;53.572;10.174;2023-11-22T08:58:49;19.23;;;9.17;;
3297;SDS011;1661;53.572;10.174;2023-11-22T09:01:15;10.47;;;8.17;;
3297;SDS011;1661;53.572;10.174;2023-11-22T09:03:43;15.60;;;9.70;;
3297;SDS011;1661;53.572;10.174;2023-11-22T09:06:10;10.93;;;7.63;;
3297;SDS011;1661;53.572;10.174;2023-11-22T09:08:38;15.57;;;9.37;;
3297;SDS011;1661;53.572;10.174;2023-11-22T09:11:04;11.67;;;8.13;;
3297;SDS011;1661;53.572;10.174;2023-11-22T09:13:31;11.57;;;8.90;;
3297;SDS011;1661;53.572;10.174;2023-11-22T09:16:01;12.43;;;9.00;;
3297;SDS011;1661;53.572;10.174;2023-11-22T09:18:30;16.57;;;10.30;;
3297;SDS011;1661;53.572;10.174;2023-11-22T09:20:57;15.17;;;10.60;;
3297;SDS011;1661;53.572;10.174;2023-11-22T09:23:23;16.27;;;11.83;;
3297;SDS011;1661;53.572;10.174;2023-11-22T09:25:51;16.90;;;10.40;;
3297;SDS011;1661;53.572;10.174;2023-11-22T09:28:18;14.10;;;9.70;;
3297;SDS011;1661;53.572;10.174;2023-11-22T09:30:45;14.10;;;10.20;;
3297;SDS011;1661;53.572;10.174;2023-11-22T09:33:15;10.77;;;8.37;;
3297;SDS011;1661;53.572;10.174;2023-11-22T09:35:42;11.67;;;8.77;;
3297;SDS011;1661;53.572;10.174;2023-11-22T09:38:10;14.03;;;10.47;;
3297;SDS011;1661;53.572;10.174;2023-11-22T09:40:39;21.57;;;12.23;;
3297;SDS011;1661;53.572;10.174;2023-11-22T09:43:08;14.83;;;10.90;;
3297;SDS011;1661;53.572;10.174;2023-11-22T09:45:35;17.33;;;12.80;;
3297;SDS011;1661;53.572;10.174;2023-11-22T09:48:04;19.83;;;12.20;;
3297;SDS011;1661;53.572;10.174;2023-11-22T09:50:43;12.77;;;9.70;;
3297;SDS011;1661;53.572;10.174;2023-11-22T09:53:22;9.97;;;8.80;;
3297;SDS011;1661;53.572;10.174;2023-11-22T09:55:57;13.13;;;9.60;;
3297;SDS011;1661;53.572;10.174;2023-11-22T09:58:25;16.40;;;10.53;;
3297;SDS011;1661;53.572;10.174;2023-11-22T10:00:55;15.97;;;11.10;;
3297;SDS011;1661;53.572;10.174;2023-11-22T10:03:23;13.70;;;10.30;;
3297;SDS011;1661;53.572;10.174;2023-11-22T10:05:54;17.20;;;9.93;;
3297;SDS011;1661;53.572;10.174;2023-11-22T10:08:23;12.77;;;9.70;;
3297;SDS011;1661;53.572;10.174;2023-11-22T10:10:52;14.23;;;9.80;;
3297;SDS011;1661;53.572;10.174;2023-11-22T10:13:20;22.97;;;9.20;;
3297;SDS011;1661;53.572;10.174;2023-11-22T10:15:47;18.13;;;11.40;;
3297;SDS011;1661;53.572;10.174;2023-11-22T10:18:15;15.67;;;10.20;;
3297;SDS011;1661;53.572;10.174;2023-11-22T10:20:43;23.17;;;11.43;;
3297;SDS011;1661;53.572;10.174;2023-11-22T10:23:13;13.87;;;9.67;;
3297;SDS011;1661;53.572;10.174;2023-11-22T10:25:43;11.97;;;9.33;;
3297;SDS011;1661;53.572;10.174;2023-11-22T10:28:12;10.23;;;8.03;;
3297;SDS011;1661;53.572;10.174;2023-11-22T10:30:39;12.23;;;9.20;;
3297;SDS011;1661;53.572;10.174;2023-11-22T10:33:07;13.70;;;9.10;;
3297;SDS011;1661;53.572;10.174;2023-11-22T10:35:38;9.70;;;8.00;;
3297;SDS011;1661;53.572;10.174;2023-11-22T10:38:07;11.67;;;9.87;;
3297;SDS011;1661;53.572;10.174;2023-11-22T10:40:37;10.53;;;9.43;;
3297;SDS011;1661;53.572;10.174;2023-11-22T10:43:04;10.70;;;8.10;;
3297;SDS011;1661;53.572;10.174;2023-11-22T10:45:33;17.03;;;8.97;;
3297;SDS011;1661;53.572;10.174;2023-11-22T10:48:00;10.63;;;7.70;;
3297;SDS011;1661;53.572;10.174;2023-11-22T10:50:27;11.93;;;7.90;;
3297;SDS011;1661;53.572;10.174;2023-11-22T10:52:56;10.23;;;8.03;;
3297;SDS011;1661;53.572;10.174;2023-11-22T10:55:26;12.47;;;8.17;;
3297;SDS011;1661;53.572;10.174;2023-11-22T10:57:56;8.37;;;6.83;;
3297;SDS011;1661;53.572;10.174;2023-11-22T11:00:29;13.37;;;8.47;;
3297;SDS011;1661;53.572;10.174;2023-11-22T11:02:59;12.50;;;7.83;;
3297;SDS011;1661;53.572;10.174;2023-11-22T11:05:27;10.60;;;7.37;;
3297;SDS011;1661;53.572;10.174;2023-11-22T11:07:58;12.93;;;8.37;;
3297;SDS011;1661;53.572;10.174;2023-11-22T11:10:31;7.57;;;6.87;;
3297;SDS011;1661;53.572;10.174;2023-11-22T11:13:00;18.07;;;7.87;;
3297;SDS011;1661;53.572;10.174;2023-11-22T11:15:27;9.00;;;8.07;;
3297;SDS011;1661;53.572;10.174;2023-11-22T11:17:54;13.07;;;6.57;;
3297;SDS011;1661;53.572;10.174;2023-11-22T11:20:22;14.73;;;6.83;;
3297;SDS011;1661;53.572;10.174;2023-11-22T11:22:49;7.50;;;6.50;;
3297;SDS011;1661;53.572;10.174;2023-11-22T11:25:17;8.60;;;6.93;;
3297;SDS011;1661;53.572;10.174;2023-11-22T11:27:44;7.23;;;5.93;;
3297;SDS011;1661;53.572;10.174;2023-11-22T11:33:09;8.03;;;5.60;;
3297;SDS011;1661;53.572;10.174;2023-11-22T11:35:37;8.73;;;6.33;;
3297;SDS011;1661;53.572;10.174;2023-11-22T11:38:05;6.67;;;4.53;;
3297;SDS011;1661;53.572;10.174;2023-11-22T11:40:34;7.07;;;5.33;;
3297;SDS011;1661;53.572;10.174;2023-11-22T11:43:01;7.77;;;6.00;;
3297;SDS011;1661;53.572;10.174;2023-11-22T11:45:28;9.70;;;7.50;;
3297;SDS011;1661;53.572;10.174;2023-11-22T11:47:57;6.97;;;5.57;;
3297;SDS011;1661;53.572;10.174;2023-11-22T11:50:24;8.87;;;6.43;;
3297;SDS011;1661;53.572;10.174;2023-11-22T11:52:51;5.77;;;5.23;;
3297;SDS011;1661;53.572;10.174;2023-11-22T11:55:18;8.10;;;6.40;;
3297;SDS011;1661;53.572;10.174;2023-11-22T11:57:45;7.03;;;6.23;;
3297;SDS011;1661;53.572;10.174;2023-11-22T12:00:13;6.77;;;5.67;;
3297;SDS011;1661;53.572;10.174;2023-11-22T12:02:40;8.07;;;5.37;;
3297;SDS011;1661;53.572;10.174;2023-11-22T12:05:08;9.60;;;5.70;;
3297;SDS011;1661;53.572;10.174;2023-11-22T12:07:35;6.03;;;5.30;;
3297;SDS011;1661;53.572;10.174;2023-11-22T12:10:02;6.97;;;4.90;;
3297;SDS011;1661;53.572;10.174;2023-11-22T12:12:31;8.20;;;5.43;;
3297;SDS011;1661;53.572;10.174;2023-11-22T12:14:57;15.33;;;4.50;;
3297;SDS011;1661;53.572;10.174;2023-11-22T12:17:25;13.03;;;4.80;;
3297;SDS011;1661;53.572;10.174;2023-11-22T12:19:53;9.97;;;4.37;;
3297;SDS011;1661;53.572;10.174;2023-11-22T12:22:36;4.93;;;4.00;;
3297;SDS011;1661;53.572;10.174;2023-11-22T12:25:03;6.43;;;3.87;;
3297;SDS011;1661;53.572;10.174;2023-11-22T12:27:31;5.70;;;4.17;;
3297;SDS011;1661;53.572;10.174;2023-11-22T12:29:57;3.63;;;3.33;;
3297;SDS011;1661;53.572;10.174;2023-11-22T12:32:24;7.70;;;3.30;;
3297;SDS011;1661;53.572;10.174;2023-11-22T12:34:53;4.70;;;3.87;;
3297;SDS011;1661;53.572;10.174;2023-11-22T12:37:20;7.00;;;3.33;;
3297;SDS011;1661;53.572;10.174;2023-11-22T12:39:49;6.90;;;4.40;;
3297;SDS011;1661;53.572;10.174;2023-11-22T12:42:17;4.60;;;4.20;;
3297;SDS011;1661;53.572;10.174;2023-11-22T12:44:48;5.83;;;4.30;;
3297;SDS011;1661;53.572;10.174;2023-11-22T12:47:30;4.23;;;3.23;;
3297;SDS011;1661;53.572;10.174;2023-11-22T12:50:00;4.10;;;3.67;;
3297;SDS011;1661;53.572;10.174;2023-11-22T12:52:27;9.60;;;4.60;;
3297;SDS011;1661;53.572;10.174;2023-11-22T12:54:55;6.07;;;3.63;;
3297;SDS011;1661;53.572;10.174;2023-11-22T12:57:23;7.63;;;3.70;;
3297;SDS011;1661;53.572;10.174;2023-11-22T12:59:50;9.53;;;4.23;;
3297;SDS011;1661;53.572;10.174;2023-11-22T13:02:17;4.27;;;3.97;;
3297;SDS011;1661;53.572;10.174;2023-11-22T13:04:44;5.20;;;3.70;;
3297;SDS011;1661;53.572;10.174;2023-11-22T13:07:11;5.93;;;4.10;;
3297;SDS011;1661;53.572;10.174;2023-11-22T13:09:38;2.90;;;2.60;;
3297;SDS011;1661;53.572;10.174;2023-11-22T13:12:07;4.00;;;3.27;;
3297;SDS011;1661;53.572;10.174;2023-11-22T13:14:34;6.90;;;3.30;;
3297;SDS011;1661;53.572;10.174;2023-11-22T13:17:03;2.80;;;2.50;;
3297;SDS011;1661;53.572;10.174;2023-11-22T13:19:32;7.17;;;3.00;;
3297;SDS011;1661;53.572;10.174;2023-11-22T13:21:58;3.90;;;2.50;;
3297;SDS011;1661;53.572;10.174;2023-11-22T13:24:25;4.40;;;3.00;;
3297;SDS011;1661;53.572;10.174;2023-11-22T13:26:52;3.30;;;3.00;;
3297;SDS011;1661;53.572;10.174;2023-11-22T13:29:21;2.93;;;2.73;;
3297;SDS011;1661;53.572;10.174;2023-11-22T13:31:48;2.70;;;2.50;;
3297;SDS011;1661;53.572;10.174;2023-11-22T13:34:16;3.07;;;2.77;;
3297;SDS011;1661;53.572;10.174;2023-11-22T13:36:43;3.93;;;2.43;;
3297;SDS011;1661;53.572;10.174;2023-11-22T13:39:10;3.53;;;2.57;;
3297;SDS011;1661;53.572;10.174;2023-11-22T13:41:40;2.80;;;2.20;;
3297;SDS011;1661;53.572;10.174;2023-11-22T13:44:06;2.50;;;1.90;;
3297;SDS011;1661;53.572;10.174;2023-11-22T13:46:34;1.60;;;1.50;;
3297;SDS011;1661;53.572;10.174;2023-11-22T13:49:01;2.87;;;1.70;;
3297;SDS011;1661;53.572;10.174;2023-11-22T13:51:28;2.03;;;1.93;;
3297;SDS011;1661;53.572;10.174;2023-11-22T13:53:56;2.40;;;2.20;;
3297;SDS011;1661;53.572;10.174;2023-11-22T13:56:23;3.10;;;2.30;;
3297;SDS011;1661;53.572;10.174;2023-11-22T13:58:50;3.83;;;2.33;;
3297;SDS011;1661;53.572;10.174;2023-11-22T14:01:17;2.30;;;1.97;;
3297;SDS011;1661;53.572;10.174;2023-11-22T14:03:47;2.63;;;2.10;;
3297;SDS011;1661;53.572;10.174;2023-11-22T14:06:14;3.90;;;2.50;;
3297;SDS011;1661;53.572;10.174;2023-11-22T14:08:42;2.60;;;2.03;;
3297;SDS011;1661;53.572;10.174;2023-11-22T14:11:10;2.10;;;1.90;;
3297;SDS011;1661;53.572;10.174;2023-11-22T14:13:36;3.87;;;3.17;;
3297;SDS011;1661;53.572;10.174;2023-11-22T14:16:05;4.30;;;2.67;;
3297;SDS011;1661;53.572;10.174;2023-11-22T14:18:32;5.57;;;3.00;;
3297;SDS011;1661;53.572;10.174;2023-11-22T14:21:00;3.97;;;2.13;;
3297;SDS011;1661;53.572;10.174;2023-11-22T14:23:29;2.40;;;2.20;;
3297;SDS011;1661;53.572;10.174;2023-11-22T14:25:56;3.63;;;1.70;;
3297;SDS011;1661;53.572;10.174;2023-11-22T14:28:23;10.60;;;2.60;;
3297;SDS011;1661;53.572;10.174;2023-11-22T14:30:50;6.10;;;3.07;;
3297;SDS011;1661;53.572;10.174;2023-11-22T14:33:19;6.00;;;2.63;;
3297;SDS011;1661;53.572;10.174;2023-11-22T14:35:46;5.03;;;2.70;;
3297;SDS011;1661;53.572;10.174;2023-11-22T14:38:14;3.87;;;2.60;;
3297;SDS011;1661;53.572;10.174;2023-11-22T14:40:42;5.70;;;2.70;;
3297;SDS011;1661;53.572;10.174;2023-11-22T14:43:09;4.13;;;3.40;;
3297;SDS011;1661;53.572;10.174;2023-11-22T14:45:36;8.70;;;3.00;;
3297;SDS011;1661;53.572;10.174;2023-11-22T14:48:04;3.63;;;2.67;;
3297;SDS011;1661;53.572;10.174;2023-11-22T14:50:32;3.23;;;2.20;;
3297;SDS011;1661;53.572;10.174;2023-11-22T14:52:59;3.83;;;3.47;;
3297;SDS011;1661;53.572;10.174;2023-11-22T14:55:27;3.10;;;2.50;;
3297;SDS011;1661;53.572;10.174;2023-11-22T14:57:54;2.90;;;2.70;;
3297;SDS011;1661;53.572;10.174;2023-11-22T15:00:22;6.90;;;3.53;;
3297;SDS011;1661;53.572;10.174;2023-11-22T15:02:50;3.80;;;3.13;;